Time;durP1;ratioP1;P1;durP2;ratioP2;P2;SDS_P1;SDS_P2;PMS_P1;PMS_P2;Temp;Humidity;BMP_temperature;BMP_pressure;BME280_temperature;BME280_humidity;BME280_pressure;Samples;Min_cycle;Max_cycle;Signal;HPM_P1;HPM_P2
2022/03/28 00:01:00;;;;;;;28.67;25.57;;;7.80;99.90;;;8.60;100.00;-20019.63;5011961;28;20353;-58
2022/03/28 00:03:28;;;;;;;28.13;25.10;;;7.80;99.90;;;8.62;100.00;-20020.47;5011393;28;20222;-57
2022/03/28 00:05:57;;;;;;;29.30;25.77;;;7.80;99.90;;;8.48;100.00;-20015.69;5011640;28;20219;-57
2022/03/28 00:08:24;;;;;;;30.67;26.93;;;7.80;99.90;;;8.48;100.00;-20015.53;5011354;28;20609;-57
2022/03/28 00:10:53;;;;;;;30.77;26.83;;;7.80;99.90;;;8.43;100.00;-20014.00;5011404;28;20230;-58
2022/03/28 00:13:21;;;;;;;29.03;25.73;;;7.70;99.90;;;8.36;100.00;-20011.44;5011188;28;20222;-60
2022/03/28 00:15:49;;;;;;;27.33;24.43;;;7.70;99.90;;;8.39;100.00;-20012.44;5002457;28;20306;-58
2022/03/28 00:18:18;;;;;;;32.53;26.37;;;7.70;99.90;;;8.43;100.00;-20013.81;4991734;28;20266;-58
2022/03/28 00:20:49;;;;;;;30.33;26.63;;;7.60;99.90;;;8.40;100.00;-20012.97;4992762;28;20289;-58
2022/03/28 00:23:17;;;;;;;29.30;26.00;;;7.60;99.90;;;8.49;100.00;-20015.88;4991731;28;20650;-59
2022/03/28 00:25:45;;;;;;;30.23;26.93;;;7.60;99.90;;;8.35;100.00;-20011.25;4991688;28;20305;-57
2022/03/28 00:28:14;;;;;;;32.13;27.17;;;7.60;99.90;;;8.40;100.00;-20012.78;4991363;28;20231;-60
2022/03/28 00:30:43;;;;;;;32.20;27.23;;;7.60;99.90;;;8.37;100.00;-20011.94;4991642;28;20237;-59
2022/03/28 00:33:12;;;;;;;31.00;27.40;;;7.60;99.90;;;8.33;100.00;-20010.41;4991621;28;20319;-58
2022/03/28 00:35:41;;;;;;;33.43;29.23;;;7.60;99.90;;;8.31;100.00;-20009.88;5009936;28;20241;-59
2022/03/28 00:38:11;;;;;;;33.47;29.70;;;7.50;99.90;;;8.23;100.00;-20006.97;5011594;28;20223;-59
2022/03/28 00:40:39;;;;;;;37.20;31.13;;;7.50;99.90;;;8.14;100.00;-20004.06;5011208;28;20218;-59
2022/03/28 00:43:09;;;;;;;36.67;30.27;;;7.50;99.90;;;8.17;100.00;-20004.94;5011039;28;20234;-59
2022/03/28 00:45:40;;;;;;;33.53;29.90;;;7.50;99.90;;;8.25;100.00;-20007.84;5011137;28;20234;-59
2022/03/28 00:48:11;;;;;;;35.83;30.77;;;7.40;99.90;;;8.21;100.00;-20006.47;5011463;28;20306;-57
2022/03/28 00:50:42;;;;;;;37.77;30.50;;;7.50;99.90;;;8.19;100.00;-20005.78;5011459;28;20232;-58
2022/03/28 00:53:13;;;;;;;37.07;31.37;;;7.40;99.90;;;8.19;100.00;-20005.59;5010880;28;20222;-58
2022/03/28 00:55:42;;;;;;;38.83;31.87;;;7.40;99.90;;;8.19;100.00;-20005.59;5011211;28;20306;-59
2022/03/28 00:58:10;;;;;;;36.97;32.63;;;7.40;99.90;;;8.09;100.00;-20002.19;5010786;28;20264;-58
2022/03/28 01:00:38;;;;;;;37.43;31.43;;;7.40;99.90;;;8.07;100.00;-20001.50;5011026;28;20239;-59
2022/03/28 01:03:06;;;;;;;37.27;31.73;;;7.30;99.90;;;8.13;100.00;-20003.72;5011159;28;20206;-58
2022/03/28 01:05:35;;;;;;;35.97;31.83;;;7.30;99.90;;;8.03;100.00;-20000.31;5010789;28;20633;-58
2022/03/28 01:08:05;;;;;;;38.43;32.50;;;7.30;99.90;;;7.97;100.00;-19998.25;5010941;28;20233;-58
2022/03/28 01:10:34;;;;;;;38.27;32.40;;;7.30;99.90;;;7.97;100.00;-19998.09;5010519;28;20226;-59
2022/03/28 01:13:03;;;;;;;38.57;32.27;;;7.20;99.90;;;7.92;100.00;-19996.38;5010670;28;20313;-60
2022/03/28 01:15:31;;;;;;;40.23;33.10;;;7.20;99.90;;;8.04;100.00;-20000.47;5004035;28;20233;-59
2022/03/28 01:18:08;;;;;;;37.93;32.80;;;7.20;99.90;;;7.89;100.00;-19995.53;4992050;28;20203;-60
2022/03/28 01:20:39;;;;;;;38.80;32.17;;;7.20;99.90;;;7.81;100.00;-19992.81;4991297;28;20278;-59
2022/03/28 01:23:10;;;;;;;40.97;33.67;;;7.10;99.90;;;7.77;100.00;-19991.44;4991115;28;20230;-58
2022/03/28 01:25:39;;;;;;;39.90;33.30;;;7.10;99.90;;;7.75;100.00;-19990.75;4990870;28;20621;-59
2022/03/28 01:28:07;;;;;;;39.43;33.57;;;7.10;99.90;;;7.78;100.00;-19991.78;4990856;28;20237;-59
2022/03/28 01:30:35;;;;;;;41.13;33.23;;;7.00;99.90;;;7.74;100.00;-19990.22;4990823;28;20326;-61
2022/03/28 01:33:03;;;;;;;40.13;32.97;;;7.00;99.90;;;7.78;100.00;-19991.59;4990997;28;20325;-59
2022/03/28 01:35:34;;;;;;;42.00;34.87;;;7.00;99.90;;;7.81;100.00;-19992.63;5008123;28;20285;-59
2022/03/28 01:38:06;;;;;;;42.37;34.80;;;7.00;99.90;;;7.78;100.00;-19991.78;5010684;28;20229;-60
2022/03/28 01:40:37;;;;;;;41.43;34.47;;;7.00;99.90;;;7.73;100.00;-19989.91;5010456;28;20560;-58
2022/03/28 01:43:06;;;;;;;42.33;34.83;;;6.90;99.90;;;7.68;100.00;-19988.34;5010257;28;20733;-59
2022/03/28 01:45:34;;;;;;;43.17;34.93;;;6.90;99.90;;;7.69;100.00;-19988.53;5010223;28;20223;-58
2022/03/28 01:48:02;;;;;;;41.30;34.30;;;6.90;99.90;;;7.59;100.00;-19985.28;5013228;28;20216;-60
2022/03/28 01:50:30;;;;;;;39.90;34.60;;;6.90;99.90;;;7.58;100.00;-19984.78;5014314;28;20608;-58
2022/03/28 01:52:58;;;;;;;39.07;33.93;;;6.80;99.90;;;7.58;100.00;-19984.94;5014105;28;20233;-60
2022/03/28 01:55:26;;;;;;;40.73;34.10;;;6.80;99.90;;;7.56;100.00;-19984.25;5013960;28;20245;-59
2022/03/28 01:57:56;;;;;;;40.93;34.63;;;6.80;99.90;;;7.43;100.00;-19979.81;5013850;28;20240;-60
2022/03/28 02:00:28;;;;;;;43.67;35.57;;;6.70;99.90;;;7.43;100.00;-19979.81;5013332;28;20307;-60
2022/03/28 02:02:56;;;;;;;42.23;34.20;;;6.70;99.90;;;7.31;100.00;-19975.88;5014207;28;20195;-58
2022/03/28 02:05:24;;;;;;;40.40;34.70;;;6.70;99.90;;;7.23;100.00;-19972.97;5014115;28;20304;-59
2022/03/28 02:07:52;;;;;;;41.67;35.10;;;6.60;99.90;;;7.28;100.00;-19974.84;5013745;28;20340;-59
2022/03/28 02:10:22;;;;;;;46.40;36.07;;;6.60;99.90;;;7.36;100.00;-19977.41;5013736;28;20707;-59
2022/03/28 02:12:52;;;;;;;42.70;35.57;;;6.60;99.90;;;7.32;100.00;-19976.06;5013950;28;20229;-58
2022/03/28 02:15:23;;;;;;;43.10;34.20;;;6.60;99.90;;;7.29;100.00;-19975.03;5008658;28;20278;-59
2022/03/28 02:17:52;;;;;;;42.43;35.30;;;6.60;99.90;;;7.26;100.00;-19974.19;4994845;28;20254;-59
2022/03/28 02:20:20;;;;;;;42.80;34.57;;;6.60;99.90;;;7.29;100.00;-19975.19;4993656;28;20623;-58
2022/03/28 02:22:48;;;;;;;42.77;34.13;;;6.60;99.90;;;7.28;100.00;-19974.84;4993997;28;20325;-59
2022/03/28 02:25:17;;;;;;;41.50;34.57;;;6.60;99.90;;;7.26;100.00;-19974.00;4993895;28;20640;-58
2022/03/28 02:27:45;;;;;;;43.03;34.77;;;6.50;99.90;;;7.26;100.00;-19974.00;4993896;28;20305;-62
2022/03/28 02:30:15;;;;;;;44.27;35.83;;;6.50;99.90;;;7.24;100.00;-19973.50;4993523;28;20252;-60
2022/03/28 02:32:45;;;;;;;43.47;35.00;;;6.50;99.90;;;7.33;100.00;-19976.41;4994679;28;20241;-61
2022/03/28 02:35:13;;;;;;;44.30;35.83;;;6.50;99.90;;;7.34;100.00;-19976.91;5007690;28;20312;-61
2022/03/28 02:37:41;;;;;;;43.10;34.53;;;6.50;99.90;;;7.20;100.00;-19971.94;5013498;28;20288;-60
2022/03/28 02:40:12;;;;;;;44.43;36.10;;;6.50;99.90;;;7.17;100.00;-19970.94;5013102;28;20316;-59
2022/03/28 02:42:40;;;;;;;41.43;34.53;;;6.50;99.90;;;7.12;100.00;-19969.38;5013291;28;20257;-57
2022/03/28 02:45:09;;;;;;;44.13;35.60;;;6.40;99.90;;;7.21;100.00;-19972.28;5013089;28;20243;-60
2022/03/28 02:47:37;;;;;;;46.17;36.73;;;6.40;99.90;;;7.23;100.00;-19973.16;5014023;28;20209;-59
2022/03/28 02:50:08;;;;;;;46.03;36.57;;;6.40;99.90;;;7.25;100.00;-19973.84;5012737;28;20236;-59
2022/03/28 02:52:37;;;;;;;46.00;36.33;;;6.40;99.90;;;7.21;100.00;-19972.28;5012781;28;20234;-60
2022/03/28 02:55:06;;;;;;;45.37;36.47;;;6.40;99.90;;;7.15;100.00;-19970.41;5012849;28;20796;-59
2022/03/28 02:57:34;;;;;;;46.33;37.43;;;6.40;99.90;;;7.10;100.00;-19968.53;5012681;28;20311;-57
2022/03/28 03:00:04;;;;;;;44.87;36.43;;;6.40;99.90;;;6.99;100.00;-19964.78;5012563;28;20657;-59
2022/03/28 03:02:31;;;;;;;44.83;36.30;;;6.30;99.90;;;7.02;100.00;-19965.97;5013192;28;20224;-58
2022/03/28 03:04:59;;;;;;;47.90;37.70;;;6.30;99.90;;;7.01;100.00;-19965.47;5012242;28;20317;-58
2022/03/28 03:07:29;;;;;;;46.90;37.63;;;6.30;99.90;;;6.98;100.00;-19964.59;5012687;28;20311;-57
2022/03/28 03:09:57;;;;;;;49.73;37.60;;;6.30;99.90;;;6.96;100.00;-19963.75;5012484;28;20721;-57
2022/03/28 03:12:25;;;;;;;50.63;39.07;;;6.20;99.90;;;7.02;100.00;-19965.78;5012453;28;20238;-60
2022/03/28 03:14:53;;;;;;;43.57;35.90;;;6.30;99.90;;;6.95;100.00;-19963.56;5011314;28;20213;-58
2022/03/28 03:17:21;;;;;;;47.50;37.80;;;6.30;99.90;;;6.91;100.00;-19962.22;4993107;28;20229;-57
2022/03/28 03:19:49;;;;;;;46.43;37.23;;;6.20;99.90;;;6.88;100.00;-19961.19;4992599;28;20448;-59
2022/03/28 03:22:18;;;;;;;48.17;38.90;;;6.20;99.90;;;6.97;100.00;-19964.25;4992468;28;20226;-57
2022/03/28 03:24:48;;;;;;;51.67;38.83;;;6.20;99.90;;;6.95;100.00;-19963.56;4992810;28;20226;-59
2022/03/28 03:27:16;;;;;;;50.27;39.77;;;6.20;99.90;;;6.94;100.00;-19963.06;4992538;28;20584;-59
2022/03/28 03:29:44;;;;;;;53.43;39.27;;;6.20;99.90;;;6.90;100.00;-19961.69;4993363;28;20207;-60
2022/03/28 03:32:12;;;;;;;51.33;39.63;;;6.20;99.90;;;6.86;100.00;-19960.50;4992341;28;20236;-58
2022/03/28 03:34:40;;;;;;;49.97;39.10;;;6.10;99.90;;;6.81;100.00;-19958.63;5002184;28;20347;-58
2022/03/28 03:37:08;;;;;;;47.73;38.63;;;6.10;99.90;;;6.70;100.00;-19955.03;5011898;28;20664;-58
2022/03/28 03:39:37;;;;;;;49.13;38.57;;;6.10;99.90;;;6.71;100.00;-19955.22;5012229;28;20233;-59
2022/03/28 03:42:08;;;;;;;53.27;38.97;;;6.10;99.90;;;6.73;100.00;-19956.06;5011781;28;20202;-58
2022/03/28 03:44:36;;;;;;;51.53;41.07;;;6.10;99.90;;;6.78;100.00;-19957.59;5012589;28;20277;-60
2022/03/28 03:47:05;;;;;;;51.80;40.60;;;6.00;99.90;;;7.08;100.00;-19968.03;5011962;28;20335;-58
2022/03/28 03:49:33;;;;;;;49.33;38.73;;;6.10;99.90;;;6.84;100.00;-19959.81;5011972;28;20755;-58
2022/03/28 03:52:00;;;;;;;53.20;40.93;;;6.10;99.90;;;6.92;100.00;-19962.38;5011962;28;20323;-60
2022/03/28 03:54:30;;;;;;;50.50;39.93;;;6.10;99.90;;;6.78;100.00;-19957.75;5011592;28;20719;-57
2022/03/28 03:56:58;;;;;;;54.90;41.30;;;6.10;99.90;;;6.88;100.00;-19961.19;5011785;28;20305;-61
2022/03/28 03:59:27;;;;;;;53.47;41.13;;;6.10;99.90;;;6.88;100.00;-19961.00;5012590;28;20215;-59
2022/03/28 04:01:55;;;;;;;51.23;40.63;;;6.10;99.90;;;7.00;100.00;-19965.13;5011969;28;20312;-60
2022/03/28 04:04:23;;;;;;;57.57;42.37;;;6.10;99.90;;;6.97;100.00;-19964.09;5011683;28;20324;-58
2022/03/28 04:06:51;;;;;;;54.27;41.53;;;6.10;99.90;;;7.03;100.00;-19966.16;5011833;28;20237;-59
2022/03/28 04:09:19;;;;;;;57.13;42.03;;;6.10;99.90;;;7.04;100.00;-19966.47;5011702;28;20255;-57
2022/03/28 04:11:48;;;;;;;56.10;42.10;;;6.20;99.90;;;7.13;100.00;-19969.72;5011782;28;20266;-60
2022/03/28 04:14:16;;;;;;;53.03;40.50;;;6.20;99.90;;;6.89;100.00;-19961.53;5011412;28;20233;-57
2022/03/28 04:16:45;;;;;;;52.37;41.93;;;6.10;99.90;;;6.86;100.00;-19960.34;4994432;28;20673;-57
2022/03/28 04:19:14;;;;;;;54.40;41.90;;;6.10;99.90;;;6.80;100.00;-19958.44;4992138;28;20232;-60
2022/03/28 04:21:43;;;;;;;55.23;41.00;;;6.10;99.90;;;7.08;100.00;-19968.03;4991858;28;20327;-60
2022/03/28 04:24:11;;;;;;;55.63;43.37;;;6.10;99.90;;;7.11;100.00;-19969.03;4992069;28;20238;-59
2022/03/28 04:26:39;;;;;;;54.60;40.03;;;6.10;99.90;;;6.87;100.00;-19960.84;4992518;28;20613;-59
2022/03/28 04:29:07;;;;;;;52.03;40.87;;;6.10;99.90;;;6.69;100.00;-19954.53;4991695;28;20312;-59
2022/03/28 04:31:37;;;;;;;56.37;43.60;;;6.00;99.90;;;6.60;100.00;-19951.44;4991725;28;20258;-60
2022/03/28 04:34:08;;;;;;;54.50;40.93;;;6.00;99.90;;;6.77;100.00;-19957.25;4996573;28;20345;-59
2022/03/28 04:36:37;;;;;;;53.17;40.63;;;6.00;99.90;;;6.63;100.00;-19952.47;5011060;28;20258;-61
2022/03/28 04:39:06;;;;;;;56.67;42.57;;;5.90;99.90;;;6.65;100.00;-19953.16;5011224;28;20737;-56
2022/03/28 04:41:34;;;;;;;55.47;42.50;;;5.90;99.90;;;6.92;100.00;-19962.38;5011787;28;20297;-59
2022/03/28 04:44:01;;;;;;;55.60;41.17;;;5.90;99.90;;;6.94;100.00;-19963.06;5010800;28;20237;-58
2022/03/28 04:46:29;;;;;;;54.47;41.60;;;6.00;99.90;;;6.68;100.00;-19954.34;5011062;28;20228;-59
2022/03/28 04:48:57;;;;;;;53.43;40.93;;;6.00;99.90;;;6.61;100.00;-19951.97;5010377;28;20242;-60
2022/03/28 04:51:27;;;;;;;53.87;40.03;;;5.90;99.90;;;6.57;100.00;-19950.41;5010882;28;20256;-58
2022/03/28 04:53:55;;;;;;;53.13;40.17;;;5.90;99.90;;;6.61;100.00;-19951.78;5011554;28;20318;-59
2022/03/28 04:56:23;;;;;;;57.43;41.83;;;5.90;99.90;;;6.87;100.00;-19960.66;5011493;28;20221;-59
2022/03/28 04:58:51;;;;;;;54.60;41.70;;;5.90;99.90;;;6.69;100.00;-19954.69;5010959;28;20320;-60
2022/03/28 05:01:18;;;;;;;55.33;41.77;;;5.90;99.90;;;6.62;100.00;-19952.31;5010580;28;20308;-59
2022/03/28 05:03:47;;;;;;;56.93;40.50;;;5.90;99.90;;;6.59;100.00;-19951.09;5007499;28;20218;-58
2022/03/28 05:06:15;;;;;;;53.87;41.63;;;5.90;99.90;;;6.47;100.00;-19947.19;5004960;28;20644;-57
2022/03/28 05:08:44;;;;;;;52.20;40.23;;;5.80;99.90;;;6.48;100.00;-19947.34;5011178;28;20301;-59
2022/03/28 05:11:12;;;;;;;56.27;41.00;;;5.80;99.90;;;6.62;100.00;-19952.13;5010721;28;20242;-59
2022/03/28 05:13:40;;;;;;;52.60;40.23;;;5.80;99.90;;;6.65;100.00;-19953.16;5010507;28;20312;-60
2022/03/28 05:16:08;;;;;;;52.43;40.47;;;5.80;99.90;;;6.69;100.00;-19954.53;5010561;28;20233;-59
2022/03/28 05:18:36;;;;;;;53.50;40.20;;;5.90;99.90;;;6.96;100.00;-19963.75;5010778;28;20620;-57
2022/03/28 05:21:04;;;;;;;55.67;41.30;;;5.90;99.90;;;7.07;100.00;-19967.50;5010674;28;20209;-58
2022/03/28 05:23:32;;;;;;;53.93;38.23;;;6.00;99.90;;;7.14;100.00;-19970.06;5014591;28;20244;-60
2022/03/28 05:26:04;;;;;;;54.97;41.27;;;6.10;99.90;;;7.15;100.00;-19970.25;5014560;28;20226;-59
2022/03/28 05:28:31;;;;;;;58.87;41.43;;;6.10;99.90;;;6.93;100.00;-19962.72;5014609;28;20789;-60
2022/03/28 05:30:59;;;;;;;52.00;39.13;;;6.20;99.90;;;7.23;100.00;-19972.97;5014430;28;20661;-59
2022/03/28 05:33:28;;;;;;;51.80;39.87;;;6.20;99.90;;;7.38;100.00;-19978.28;5014160;28;20229;-60
2022/03/28 05:35:57;;;;;;;48.27;37.47;;;6.30;99.90;;;7.18;100.00;-19971.28;5014335;28;20295;-60
2022/03/28 05:38:26;;;;;;;51.27;39.03;;;6.30;99.90;;;7.25;100.00;-19973.84;5014805;28;20216;-58
2022/03/28 05:40:55;;;;;;;49.53;38.00;;;6.40;99.90;;;7.22;100.00;-19972.81;5014176;28;20836;-59
2022/03/28 05:43:25;;;;;;;52.30;38.70;;;6.40;99.90;;;7.63;100.00;-19986.47;5013890;28;20267;-59
2022/03/28 05:45:53;;;;;;;49.57;37.53;;;6.50;99.90;;;7.97;100.00;-19998.09;5007932;28;20243;-59
2022/03/28 05:48:22;;;;;;;52.10;38.67;;;6.70;99.90;;;7.87;100.00;-19994.84;5002898;28;20223;-59
2022/03/28 05:50:50;;;;;;;50.37;37.43;;;6.80;99.90;;;8.20;100.00;-20005.97;5002265;28;20226;-58
2022/03/28 05:53:19;;;;;;;49.20;37.47;;;6.90;99.90;;;8.13;100.00;-20003.72;4994112;28;20690;-59
2022/03/28 05:55:47;;;;;;;51.03;36.87;;;7.10;99.90;;;8.05;100.00;-20000.84;4994126;28;20287;-57
2022/03/28 05:58:16;;;;;;;47.73;37.20;;;7.10;99.90;;;7.98;100.00;-19998.59;4994504;28;20595;-58
2022/03/28 06:00:46;;;;;;;47.10;36.23;;;7.10;99.90;;;8.11;100.00;-20003.06;4994399;28;20254;-58
2022/03/28 06:03:14;;;;;;;49.77;36.77;;;7.10;99.90;;;8.15;100.00;-20004.41;4994248;28;20222;-58
2022/03/28 06:06:03;;;;;;;51.07;36.77;;;7.10;99.90;;;8.30;100.00;-20009.38;5003802;28;20206;-59
2022/03/28 06:08:31;;;;;;;46.90;37.30;;;7.20;99.90;;;8.35;100.00;-20011.25;5014538;28;20241;-58
2022/03/28 06:11:01;;;;;;;47.60;37.40;;;7.20;99.90;;;8.40;100.00;-20012.78;5013521;28;20294;-59
2022/03/28 06:13:29;;;;;;;48.37;37.37;;;7.20;99.90;;;8.22;100.00;-20006.63;5013426;28;20240;-58
2022/03/28 06:15:59;;;;;;;47.77;35.87;;;7.30;99.90;;;8.15;100.00;-20004.41;5010245;28;20299;-59
2022/03/28 06:18:27;;;;;;;49.53;37.27;;;7.30;99.90;;;7.98;100.00;-19998.59;5006394;28;20248;-59
2022/03/28 06:20:55;;;;;;;48.90;36.77;;;7.30;99.90;;;8.41;100.00;-20013.13;5004189;28;20198;-57
2022/03/28 06:23:23;;;;;;;44.00;35.90;;;7.40;99.90;;;8.58;100.00;-20018.94;5003519;28;20533;-58
2022/03/28 06:25:51;;;;;;;46.57;34.93;;;7.50;99.90;;;8.47;100.00;-20015.34;5004741;28;20233;-60
2022/03/28 06:28:19;;;;;;;51.97;37.23;;;7.50;99.90;;;8.45;100.00;-20014.69;5013118;28;20738;-59
2022/03/28 06:30:47;;;;;;;47.10;34.67;;;7.60;99.90;;;8.56;100.00;-20018.25;5008274;28;20317;-60
2022/03/28 06:33:16;;;;;;;49.60;36.17;;;7.70;99.90;;;8.98;100.00;-20032.44;4993070;28;20613;-58
2022/03/28 06:35:46;;;;;;;44.90;35.20;;;7.80;99.90;;;8.99;100.00;-20032.97;5012788;28;20263;-59
2022/03/28 06:38:14;;;;;;;47.50;34.77;;;7.90;99.90;;;8.89;100.00;-20029.38;5013453;28;20342;-59
2022/03/28 06:40:42;;;;;;;43.67;33.97;;;7.90;99.90;;;8.90;100.00;-20029.72;5013050;28;20321;-61
2022/03/28 06:43:10;;;;;;;46.87;35.30;;;7.90;99.90;;;8.85;100.00;-20028.00;5012985;28;20236;-58
2022/03/28 06:45:38;;;;;;;46.17;34.63;;;8.00;99.90;;;8.90;100.00;-20029.72;5012309;28;20226;-59
2022/03/28 06:48:07;;;;;;;44.97;33.53;;;8.10;99.90;;;8.87;100.00;-20028.69;5012788;28;20574;-58
2022/03/28 06:50:56;;;;;;;44.90;33.57;;;8.00;99.90;;;9.03;100.00;-20034.16;5010352;28;20203;-60
2022/03/28 06:53:24;;;;;;;40.97;32.50;;;8.20;99.90;;;9.18;100.00;-20039.44;5006743;28;20586;-60
2022/03/28 06:55:52;;;;;;;44.90;33.57;;;8.20;99.90;;;9.49;100.00;-20050.03;4996800;28;20247;-60
2022/03/28 06:58:21;;;;;;;43.13;32.47;;;8.40;99.90;;;9.44;100.00;-20048.16;4993058;28;20231;-61
2022/03/28 07:00:49;;;;;;;40.70;32.57;;;8.40;99.90;;;9.58;100.00;-20052.94;4993340;28;20310;-60
2022/03/28 07:03:17;;;;;;;41.03;32.23;;;8.50;99.90;;;9.69;100.00;-20056.88;5003966;28;20224;-59
2022/03/28 07:05:46;;;;;;;43.30;32.23;;;8.60;99.90;;;9.83;100.00;-20061.47;5008267;28;20200;-60
2022/03/28 07:08:15;;;;;;;41.63;31.63;;;8.80;99.90;;;9.82;100.00;-20061.31;4992674;28;20247;-60
2022/03/28 07:10:43;;;;;;;41.03;31.53;;;8.80;99.90;;;9.98;100.00;-20066.44;4993663;28;20335;-57
2022/03/28 07:13:11;;;;;;;41.73;32.10;;;8.90;99.90;;;9.94;100.00;-20065.25;5002651;28;20557;-59
2022/03/28 07:15:39;;;;;;;38.03;30.63;;;9.00;99.90;;;9.86;100.00;-20062.69;5000763;28;20246;-59
2022/03/28 07:18:08;;;;;;;37.90;31.07;;;9.00;99.90;;;9.84;100.00;-20061.81;5011966;28;20207;-61
2022/03/28 07:20:39;;;;;;;38.37;31.73;;;9.00;99.90;;;9.87;100.00;-20062.84;5012373;28;20235;-58
2022/03/28 07:23:09;;;;;;;38.43;30.80;;;9.00;99.90;;;10.06;100.00;-20069.34;5011539;28;20321;-60
2022/03/28 07:25:39;;;;;;;39.17;30.70;;;9.20;99.90;;;10.23;100.00;-20075.16;5011473;28;20322;-60
2022/03/28 07:28:12;;;;;;;40.50;31.53;;;9.30;99.90;;;10.37;100.00;-20079.94;5011478;28;20226;-60
2022/03/28 07:30:41;;;;;;;36.83;30.73;;;9.50;99.90;;;10.64;100.00;-20088.97;5011475;28;20232;-60
2022/03/28 07:33:09;;;;;;;40.37;31.40;;;9.60;99.90;;;10.72;100.00;-20091.72;5011123;28;20206;-60
2022/03/28 07:35:39;;;;;;;38.03;30.53;;;9.70;99.90;;;10.82;100.00;-20095.13;5011426;28;20262;-60
2022/03/28 07:38:10;;;;;;;38.97;30.87;;;9.80;99.90;;;10.93;100.00;-20098.88;5010873;28;20227;-61
2022/03/28 07:40:46;;;;;;;36.70;30.23;;;10.00;99.90;;;11.19;100.00;-20107.59;5011366;28;20226;-60
2022/03/28 07:43:15;;;;;;;34.53;29.07;;;10.10;99.90;;;11.26;100.00;-20110.00;5011343;28;20289;-60
2022/03/28 07:45:43;;;;;;;36.17;29.87;;;10.20;99.90;;;11.47;100.00;-20117.16;5010340;28;20643;-61
2022/03/28 07:48:11;;;;;;;36.50;30.37;;;10.40;99.90;;;11.48;100.00;-20117.50;5011183;28;20257;-59
2022/03/28 07:50:39;;;;;;;38.87;29.47;;;10.40;99.90;;;11.63;100.00;-20122.63;5011387;28;20226;-60
2022/03/28 07:53:08;;;;;;;37.03;30.03;;;10.60;99.90;;;11.70;100.00;-20125.19;5010953;28;20230;-59
2022/03/28 07:55:36;;;;;;;37.40;31.13;;;10.70;99.90;;;11.77;100.00;-20127.41;5010873;28;20230;-60
2022/03/28 07:58:06;;;;;;;35.93;29.90;;;10.80;99.90;;;11.92;100.00;-20132.72;5010873;28;20317;-60
2022/03/28 08:00:35;;;;;;;39.63;29.20;;;10.90;99.90;;;12.20;100.00;-20142.28;5011291;28;20313;-60
2022/03/28 08:03:03;;;;;;;34.67;29.63;;;11.10;99.90;;;12.31;100.00;-20145.84;5011196;28;20207;-60
2022/03/28 08:05:31;;;;;;;32.07;28.47;;;11.20;99.90;;;12.40;100.00;-20148.94;5010781;28;20207;-59
2022/03/28 08:07:59;;;;;;;36.63;29.67;;;11.30;99.90;;;12.59;100.00;-20155.25;5010958;28;20365;-60
2022/03/28 08:10:27;;;;;;;32.03;27.37;;;11.50;99.90;;;12.67;100.00;-20157.97;5011081;28;20636;-59
2022/03/28 08:12:55;;;;;;;35.77;28.30;;;11.60;99.90;;;12.94;100.00;-20167.38;5010607;28;20237;-61
2022/03/28 08:15:25;;;;;;;33.43;28.10;;;11.80;99.90;;;12.90;100.00;-20166.00;5004468;28;20224;-59
2022/03/28 08:17:53;;;;;;;31.63;26.90;;;11.80;99.90;;;12.97;100.00;-20168.22;4991321;28;20292;-60
2022/03/28 08:20:21;;;;;;;30.83;25.73;;;11.90;99.90;;;13.21;100.00;-20176.41;4990501;28;20235;-60
2022/03/28 08:22:54;;;;;;;30.47;25.07;;;12.00;99.90;;;13.17;100.00;-20175.22;4990404;28;20388;-59
2022/03/28 08:25:23;;;;;;;30.73;26.17;;;12.00;99.90;;;13.34;100.00;-20181.03;4990818;28;20306;-58
2022/03/28 08:27:52;;;;;;;32.43;24.60;;;12.20;99.90;;;13.41;100.00;-20183.25;4990540;28;20338;-60
2022/03/28 08:30:20;;;;;;;31.50;24.97;;;12.30;99.90;;;13.58;100.00;-20188.88;4991052;28;20514;-59
2022/03/28 08:32:50;;;;;;;32.17;24.83;;;12.40;99.90;;;13.62;100.00;-20190.25;4991215;28;20210;-58
2022/03/28 08:35:18;;;;;;;29.73;23.70;;;12.50;99.90;;;13.76;100.00;-20195.19;5005046;28;20246;-59
2022/03/28 08:37:46;;;;;;;35.43;25.67;;;12.60;99.90;;;13.65;100.00;-20191.28;5009967;28;20277;-60
2022/03/28 08:40:16;;;;;;;31.73;25.43;;;12.50;99.90;;;13.79;100.00;-20196.06;5010730;28;20234;-59
2022/03/28 08:42:44;;;;;;;27.73;24.13;;;12.60;99.90;;;13.90;100.00;-20199.81;5010216;28;20717;-60
2022/03/28 08:45:14;;;;;;;25.13;22.40;;;12.70;99.90;;;14.11;99.20;-20207.16;5010519;28;20202;-59
2022/03/28 08:47:47;;;;;;;28.97;22.73;;;12.90;99.90;;;14.15;98.47;-20208.50;5010814;28;20223;-59
2022/03/28 08:50:40;;;;;;;26.03;22.67;;;13.00;99.90;;;14.35;98.08;-20215.19;5010077;28;20218;-60
2022/03/28 08:53:08;;;;;;;25.33;21.97;;;13.10;99.90;;;14.37;97.58;-20216.03;5010260;28;20230;-57
2022/03/28 08:55:36;;;;;;;29.00;22.67;;;13.20;99.90;;;14.42;97.48;-20217.56;5010206;28;20376;-59
2022/03/28 08:58:04;;;;;;;24.03;21.00;;;13.20;99.90;;;14.51;97.65;-20220.63;5009953;28;20310;-57
2022/03/28 09:00:32;;;;;;;24.73;19.63;;;13.30;99.90;;;14.64;96.43;-20225.06;5010567;28;20330;-58
2022/03/28 09:03:01;;;;;;;23.40;20.27;;;13.40;99.90;;;14.62;96.83;-20224.56;5009957;28;20198;-58
2022/03/28 09:05:33;;;;;;;21.63;18.93;;;13.50;99.90;;;14.75;96.23;-20228.66;5010455;28;20206;-59
2022/03/28 09:08:05;;;;;;;21.93;19.53;;;13.60;99.90;;;14.89;96.03;-20233.59;5009888;28;20230;-60
2022/03/28 09:10:38;;;;;;;23.03;18.33;;;13.70;99.90;;;15.04;95.30;-20238.72;5010345;28;20664;-60
2022/03/28 09:13:09;;;;;;;21.73;19.43;;;13.80;99.90;;;15.20;95.29;-20244.00;5009891;28;20337;-59
2022/03/28 09:15:47;;;;;;;23.80;19.10;;;13.90;99.90;;;15.20;94.92;-20244.19;5001984;28;20778;-59
2022/03/28 09:18:27;;;;;;;20.88;18.40;;;14.00;99.90;;;15.26;93.81;-20246.22;4990066;28;20619;-58
2022/03/28 09:20:58;;;;;;;20.83;18.25;;;14.10;99.90;;;15.33;93.55;-20248.44;4990747;28;20187;-60
2022/03/28 09:23:39;;;;;;;19.98;17.88;;;14.20;99.90;;;15.45;92.96;-20252.72;4990741;28;20270;-58
2022/03/28 09:26:16;;;;;;;19.85;17.25;;;14.30;99.90;;;15.57;92.91;-20256.66;4990407;28;20656;-60
2022/03/28 09:28:53;;;;;;;19.77;16.80;;;14.40;99.90;;;15.64;92.26;-20259.03;4990371;28;20230;-59
2022/03/28 09:31:27;;;;;;;18.23;16.05;;;14.40;99.90;;;15.66;89.89;-20259.72;5003272;28;20226;-58
2022/03/28 09:34:07;;;;;;;19.60;16.15;;;14.50;99.90;;;15.71;90.18;-20261.44;5009897;28;20225;-60
2022/03/28 09:36:49;;;;;;;17.83;15.93;;;14.50;99.90;;;15.90;89.72;-20267.75;5010153;28;20257;-60
2022/03/28 09:39:23;;;;;;;16.87;15.17;;;14.60;99.90;;;15.84;88.53;-20266.03;5010066;28;20551;-56
2022/03/28 09:42:04;;;;;;;17.45;15.32;;;14.60;99.90;;;15.64;89.29;-20259.03;5010705;28;20200;-59
2022/03/28 09:44:38;;;;;;;19.17;16.03;;;14.60;99.90;;;15.77;88.75;-20263.47;5010064;28;20298;-59
2022/03/28 09:47:09;;;;;;;16.85;15.00;;;14.60;99.90;;;15.98;87.56;-20270.47;5009798;28;20315;-57
2022/03/28 09:49:37;;;;;;;18.38;14.95;;;14.70;99.90;;;16.09;87.03;-20274.38;5009719;28;20725;-59
2022/03/28 09:52:09;;;;;;;17.48;15.07;;;14.70;99.90;;;16.21;85.34;-20278.47;5010185;28;20337;-61
2022/03/28 09:54:49;;;;;;;16.15;14.50;;;14.90;99.90;;;16.11;85.94;-20274.91;5009916;28;20690;-59
2022/03/28 09:57:22;;;;;;;17.52;15.25;;;14.90;99.90;;;16.19;85.48;-20277.63;5009312;28;20222;-60
2022/03/28 09:59:52;;;;;;;18.25;14.95;;;15.00;99.90;;;16.16;85.23;-20276.59;5010445;28;20191;-57
2022/03/28 10:02:23;;;;;;;18.65;15.20;;;15.00;99.90;;;16.14;85.15;-20275.91;5009705;28;20231;-59
2022/03/28 10:04:54;;;;;;;16.75;14.98;;;15.00;99.90;;;16.24;84.96;-20279.34;5009467;28;20250;-59
2022/03/28 10:07:23;;;;;;;16.77;14.73;;;15.00;99.90;;;16.38;84.57;-20284.28;5009789;28;20278;-57
2022/03/28 10:09:53;;;;;;;17.05;14.18;;;15.10;99.90;;;16.38;84.77;-20284.13;5012986;28;20227;-60
2022/03/28 10:12:24;;;;;;;16.85;15.10;;;15.20;99.90;;;16.52;85.00;-20288.91;5013398;28;20277;-59